sensor_id;sensor_type;location;lat;lon;timestamp;P1;durP1;ratioP1;P2;durP2;ratioP2
51332;SDS011;37417;48.118;11.734;2022-09-06T00:00:24;5.15;;;3.55;;
51332;SDS011;37417;48.118;11.734;2022-09-06T00:03:10;4.20;;;3.47;;
51332;SDS011;37417;48.118;11.734;2022-09-06T00:05:56;4.53;;;3.30;;
51332;SDS011;37417;48.118;11.734;2022-09-06T00:08:42;4.68;;;2.85;;
51332;SDS011;37417;48.118;11.734;2022-09-06T00:11:27;5.35;;;3.00;;
51332;SDS011;37417;48.118;11.734;2022-09-06T00:14:13;6.57;;;2.97;;
51332;SDS011;37417;48.118;11.734;2022-09-06T00:16:59;3.90;;;3.17;;
51332;SDS011;37417;48.118;11.734;2022-09-06T00:19:44;3.78;;;3.03;;
51332;SDS011;37417;48.118;11.734;2022-09-06T00:22:30;3.50;;;3.17;;
51332;SDS011;37417;48.118;11.734;2022-09-06T00:25:15;4.03;;;3.25;;
51332;SDS011;37417;48.118;11.734;2022-09-06T00:28:03;4.68;;;4.28;;
51332;SDS011;37417;48.118;11.734;2022-09-06T00:30:49;6.05;;;3.53;;
51332;SDS011;37417;48.118;11.734;2022-09-06T00:33:34;3.65;;;3.30;;
51332;SDS011;37417;48.118;11.734;2022-09-06T00:36:20;5.50;;;4.13;;
51332;SDS011;37417;48.118;11.734;2022-09-06T00:39:06;6.10;;;3.38;;
51332;SDS011;37417;48.118;11.734;2022-09-06T00:41:52;4.88;;;4.25;;
51332;SDS011;37417;48.118;11.734;2022-09-06T00:44:37;6.93;;;4.05;;
51332;SDS011;37417;48.118;11.734;2022-09-06T00:47:23;5.25;;;3.63;;
51332;SDS011;37417;48.118;11.734;2022-09-06T00:50:09;4.25;;;3.33;;
51332;SDS011;37417;48.118;11.734;2022-09-06T00:52:57;4.85;;;3.30;;
51332;SDS011;37417;48.118;11.734;2022-09-06T00:55:42;4.55;;;4.10;;
51332;SDS011;37417;48.118;11.734;2022-09-06T00:58:28;6.93;;;4.05;;
51332;SDS011;37417;48.118;11.734;2022-09-06T01:01:14;4.45;;;4.03;;
51332;SDS011;37417;48.118;11.734;2022-09-06T01:03:59;4.45;;;3.58;;
51332;SDS011;37417;48.118;11.734;2022-09-06T01:07:05;3.85;;;3.55;;
51332;SDS011;37417;48.118;11.734;2022-09-06T01:15:55;5.10;;;4.05;;
51332;SDS011;37417;48.118;11.734;2022-09-06T01:30:25;4.57;;;3.83;;
51332;SDS011;37417;48.118;11.734;2022-09-06T01:33:29;6.68;;;4.10;;
51332;SDS011;37417;48.118;11.734;2022-09-06T01:36:18;5.85;;;4.53;;
51332;SDS011;37417;48.118;11.734;2022-09-06T01:39:05;5.03;;;3.95;;
51332;SDS011;37417;48.118;11.734;2022-09-06T01:41:50;5.78;;;4.15;;
51332;SDS011;37417;48.118;11.734;2022-09-06T01:44:36;4.45;;;4.05;;
51332;SDS011;37417;48.118;11.734;2022-09-06T01:47:35;4.68;;;4.22;;
51332;SDS011;37417;48.118;11.734;2022-09-06T01:50:32;4.47;;;4.07;;
51332;SDS011;37417;48.118;11.734;2022-09-06T01:53:32;5.70;;;4.07;;
51332;SDS011;37417;48.118;11.734;2022-09-06T02:01:59;4.15;;;3.72;;
51332;SDS011;37417;48.118;11.734;2022-09-06T02:04:51;6.22;;;4.05;;
51332;SDS011;37417;48.118;11.734;2022-09-06T02:07:37;7.80;;;4.25;;
51332;SDS011;37417;48.118;11.734;2022-09-06T02:11:06;6.15;;;4.13;;
51332;SDS011;37417;48.118;11.734;2022-09-06T02:13:34;6.82;;;4.68;;
51332;SDS011;37417;48.118;11.734;2022-09-06T02:16:22;5.30;;;4.40;;
51332;SDS011;37417;48.118;11.734;2022-09-06T02:19:11;4.47;;;4.05;;
51332;SDS011;37417;48.118;11.734;2022-09-06T02:21:59;5.53;;;3.85;;
51332;SDS011;37417;48.118;11.734;2022-09-06T02:24:48;4.53;;;4.13;;
51332;SDS011;37417;48.118;11.734;2022-09-06T02:27:34;4.65;;;3.80;;
51332;SDS011;37417;48.118;11.734;2022-09-06T02:30:20;5.43;;;4.38;;
51332;SDS011;37417;48.118;11.734;2022-09-06T02:33:06;7.30;;;4.53;;
51332;SDS011;37417;48.118;11.734;2022-09-06T02:35:53;6.03;;;4.25;;
51332;SDS011;37417;48.118;11.734;2022-09-06T02:38:39;5.68;;;4.15;;
51332;SDS011;37417;48.118;11.734;2022-09-06T02:41:25;5.03;;;3.42;;
51332;SDS011;37417;48.118;11.734;2022-09-06T02:44:12;4.72;;;4.13;;
51332;SDS011;37417;48.118;11.734;2022-09-06T02:46:58;4.65;;;4.18;;
51332;SDS011;37417;48.118;11.734;2022-09-06T02:49:45;6.30;;;4.25;;
51332;SDS011;37417;48.118;11.734;2022-09-06T02:52:31;7.35;;;4.13;;
51332;SDS011;37417;48.118;11.734;2022-09-06T02:55:16;6.50;;;4.43;;
51332;SDS011;37417;48.118;11.734;2022-09-06T02:58:04;7.88;;;4.78;;
51332;SDS011;37417;48.118;11.734;2022-09-06T03:00:51;4.60;;;4.20;;
51332;SDS011;37417;48.118;11.734;2022-09-06T03:03:37;5.10;;;4.40;;
51332;SDS011;37417;48.118;11.734;2022-09-06T03:06:23;8.45;;;4.03;;
51332;SDS011;37417;48.118;11.734;2022-09-06T03:09:08;6.40;;;4.20;;
51332;SDS011;37417;48.118;11.734;2022-09-06T03:11:54;6.25;;;3.92;;
51332;SDS011;37417;48.118;11.734;2022-09-06T03:14:40;5.60;;;3.50;;
51332;SDS011;37417;48.118;11.734;2022-09-06T03:17:25;4.25;;;3.90;;
51332;SDS011;37417;48.118;11.734;2022-09-06T03:20:11;6.70;;;4.20;;
51332;SDS011;37417;48.118;11.734;2022-09-06T03:22:57;7.80;;;4.10;;
51332;SDS011;37417;48.118;11.734;2022-09-06T03:25:42;5.43;;;3.80;;
51332;SDS011;37417;48.118;11.734;2022-09-06T03:28:28;7.32;;;4.28;;
51332;SDS011;37417;48.118;11.734;2022-09-06T03:31:14;5.57;;;4.13;;
51332;SDS011;37417;48.118;11.734;2022-09-06T03:34:00;4.72;;;3.80;;
51332;SDS011;37417;48.118;11.734;2022-09-06T03:36:45;7.18;;;4.32;;
51332;SDS011;37417;48.118;11.734;2022-09-06T03:39:31;4.55;;;4.07;;
51332;SDS011;37417;48.118;11.734;2022-09-06T03:42:16;5.53;;;3.88;;
51332;SDS011;37417;48.118;11.734;2022-09-06T03:45:02;3.65;;;3.17;;
51332;SDS011;37417;48.118;11.734;2022-09-06T03:47:47;3.72;;;3.40;;
51332;SDS011;37417;48.118;11.734;2022-09-06T03:50:33;3.95;;;3.55;;
51332;SDS011;37417;48.118;11.734;2022-09-06T03:53:19;3.70;;;3.30;;
51332;SDS011;37417;48.118;11.734;2022-09-06T03:56:04;3.83;;;3.40;;
51332;SDS011;37417;48.118;11.734;2022-09-06T03:58:50;3.78;;;3.47;;
51332;SDS011;37417;48.118;11.734;2022-09-06T04:01:36;4.82;;;3.92;;
51332;SDS011;37417;48.118;11.734;2022-09-06T04:04:21;6.82;;;3.40;;
51332;SDS011;37417;48.118;11.734;2022-09-06T04:07:07;6.05;;;3.50;;
51332;SDS011;37417;48.118;11.734;2022-09-06T04:09:52;3.33;;;3.03;;
51332;SDS011;37417;48.118;11.734;2022-09-06T04:12:38;5.75;;;3.42;;
51332;SDS011;37417;48.118;11.734;2022-09-06T04:15:24;3.95;;;3.13;;
51332;SDS011;37417;48.118;11.734;2022-09-06T04:18:09;7.13;;;3.55;;
51332;SDS011;37417;48.118;11.734;2022-09-06T04:20:55;4.25;;;3.05;;
51332;SDS011;37417;48.118;11.734;2022-09-06T04:23:41;3.35;;;3.00;;
51332;SDS011;37417;48.118;11.734;2022-09-06T04:26:26;4.03;;;3.38;;
51332;SDS011;37417;48.118;11.734;2022-09-06T04:29:12;5.20;;;3.38;;
51332;SDS011;37417;48.118;11.734;2022-09-06T04:31:57;4.43;;;3.63;;
51332;SDS011;37417;48.118;11.734;2022-09-06T04:34:43;5.75;;;3.13;;
51332;SDS011;37417;48.118;11.734;2022-09-06T04:37:28;7.07;;;3.55;;
51332;SDS011;37417;48.118;11.734;2022-09-06T04:40:14;3.90;;;3.50;;
51332;SDS011;37417;48.118;11.734;2022-09-06T04:42:59;4.50;;;3.10;;
51332;SDS011;37417;48.118;11.734;2022-09-06T04:45:45;3.47;;;3.00;;
51332;SDS011;37417;48.118;11.734;2022-09-06T04:48:30;3.63;;;3.10;;
51332;SDS011;37417;48.118;11.734;2022-09-06T04:51:16;6.22;;;3.28;;
51332;SDS011;37417;48.118;11.734;2022-09-06T04:54:02;4.07;;;3.35;;
51332;SDS011;37417;48.118;11.734;2022-09-06T04:56:47;5.35;;;3.45;;
51332;SDS011;37417;48.118;11.734;2022-09-06T04:59:33;7.50;;;3.38;;
51332;SDS011;37417;48.118;11.734;2022-09-06T05:02:18;4.45;;;3.00;;
51332;SDS011;37417;48.118;11.734;2022-09-06T05:05:04;6.38;;;3.50;;
51332;SDS011;37417;48.118;11.734;2022-09-06T05:07:51;7.15;;;3.67;;
51332;SDS011;37417;48.118;11.734;2022-09-06T05:10:36;4.25;;;3.17;;
51332;SDS011;37417;48.118;11.734;2022-09-06T05:13:22;6.30;;;3.05;;
51332;SDS011;37417;48.118;11.734;2022-09-06T05:16:08;4.13;;;3.60;;
51332;SDS011;37417;48.118;11.734;2022-09-06T05:18:53;4.03;;;2.42;;
51332;SDS011;37417;48.118;11.734;2022-09-06T05:21:39;7.32;;;3.08;;
51332;SDS011;37417;48.118;11.734;2022-09-06T05:24:25;3.92;;;2.95;;
51332;SDS011;37417;48.118;11.734;2022-09-06T05:27:10;5.93;;;2.55;;
51332;SDS011;37417;48.118;11.734;2022-09-06T05:29:57;10.80;;;2.97;;
51332;SDS011;37417;48.118;11.734;2022-09-06T05:32:42;3.20;;;2.08;;
51332;SDS011;37417;48.118;11.734;2022-09-06T05:35:28;4.20;;;2.47;;
51332;SDS011;37417;48.118;11.734;2022-09-06T05:38:13;4.57;;;2.28;;
51332;SDS011;37417;48.118;11.734;2022-09-06T05:40:59;3.17;;;2.25;;
51332;SDS011;37417;48.118;11.734;2022-09-06T05:43:44;2.60;;;2.25;;
51332;SDS011;37417;48.118;11.734;2022-09-06T05:46:30;3.85;;;1.98;;
51332;SDS011;37417;48.118;11.734;2022-09-06T05:49:16;5.20;;;2.25;;
51332;SDS011;37417;48.118;11.734;2022-09-06T05:52:01;2.63;;;1.77;;
51332;SDS011;37417;48.118;11.734;2022-09-06T05:54:47;1.95;;;1.70;;
51332;SDS011;37417;48.118;11.734;2022-09-06T05:57:32;3.83;;;2.13;;
51332;SDS011;37417;48.118;11.734;2022-09-06T06:00:18;2.17;;;1.65;;
51332;SDS011;37417;48.118;11.734;2022-09-06T06:03:03;1.67;;;1.58;;
51332;SDS011;37417;48.118;11.734;2022-09-06T06:05:49;1.67;;;1.58;;
51332;SDS011;37417;48.118;11.734;2022-09-06T06:08:35;2.40;;;1.58;;
51332;SDS011;37417;48.118;11.734;2022-09-06T06:11:20;5.28;;;2.10;;
51332;SDS011;37417;48.118;11.734;2022-09-06T06:14:06;1.95;;;1.80;;
51332;SDS011;37417;48.118;11.734;2022-09-06T06:16:52;2.38;;;2.17;;
51332;SDS011;37417;48.118;11.734;2022-09-06T06:19:37;5.45;;;2.28;;
51332;SDS011;37417;48.118;11.734;2022-09-06T06:22:24;2.47;;;1.92;;
51332;SDS011;37417;48.118;11.734;2022-09-06T06:25:09;2.95;;;2.40;;
51332;SDS011;37417;48.118;11.734;2022-09-06T06:27:55;4.20;;;1.98;;
51332;SDS011;37417;48.118;11.734;2022-09-06T06:30:41;4.95;;;3.03;;
51332;SDS011;37417;48.118;11.734;2022-09-06T06:33:26;4.25;;;2.38;;
51332;SDS011;37417;48.118;11.734;2022-09-06T06:38:59;2.42;;;2.13;;
51332;SDS011;37417;48.118;11.734;2022-09-06T06:41:45;2.40;;;2.17;;
51332;SDS011;37417;48.118;11.734;2022-09-06T06:44:32;3.58;;;2.05;;
51332;SDS011;37417;48.118;11.734;2022-09-06T06:47:18;4.07;;;1.92;;
51332;SDS011;37417;48.118;11.734;2022-09-06T06:50:03;5.05;;;2.05;;
51332;SDS011;37417;48.118;11.734;2022-09-06T06:52:49;2.88;;;2.00;;
51332;SDS011;37417;48.118;11.734;2022-09-06T06:55:35;3.83;;;2.20;;
51332;SDS011;37417;48.118;11.734;2022-09-06T06:58:20;2.55;;;2.10;;
51332;SDS011;37417;48.118;11.734;2022-09-06T07:01:06;3.90;;;1.85;;
51332;SDS011;37417;48.118;11.734;2022-09-06T07:03:52;3.70;;;1.77;;
51332;SDS011;37417;48.118;11.734;2022-09-06T07:06:45;2.33;;;2.13;;
51332;SDS011;37417;48.118;11.734;2022-09-06T07:09:31;3.65;;;1.90;;
51332;SDS011;37417;48.118;11.734;2022-09-06T07:12:16;3.45;;;1.80;;
51332;SDS011;37417;48.118;11.734;2022-09-06T07:15:02;6.53;;;2.15;;
51332;SDS011;37417;48.118;11.734;2022-09-06T07:17:48;3.50;;;2.05;;
51332;SDS011;37417;48.118;11.734;2022-09-06T07:20:33;2.75;;;1.70;;
51332;SDS011;37417;48.118;11.734;2022-09-06T07:23:19;4.15;;;1.92;;
51332;SDS011;37417;48.118;11.734;2022-09-06T07:26:04;3.75;;;1.70;;
51332;SDS011;37417;48.118;11.734;2022-09-06T07:28:51;3.10;;;1.38;;
51332;SDS011;37417;48.118;11.734;2022-09-06T07:31:37;1.15;;;1.05;;
51332;SDS011;37417;48.118;11.734;2022-09-06T07:34:22;3.22;;;1.15;;
51332;SDS011;37417;48.118;11.734;2022-09-06T07:37:10;2.00;;;1.02;;
51332;SDS011;37417;48.118;11.734;2022-09-06T07:39:55;4.55;;;1.10;;
51332;SDS011;37417;48.118;11.734;2022-09-06T07:42:42;3.65;;;1.13;;
51332;SDS011;37417;48.118;11.734;2022-09-06T07:45:27;1.90;;;0.60;;
51332;SDS011;37417;48.118;11.734;2022-09-06T07:48:13;5.95;;;1.55;;
51332;SDS011;37417;48.118;11.734;2022-09-06T07:51:02;1.92;;;0.80;;
51332;SDS011;37417;48.118;11.734;2022-09-06T07:53:49;0.98;;;0.80;;
51332;SDS011;37417;48.118;11.734;2022-09-06T07:56:35;4.03;;;1.02;;
51332;SDS011;37417;48.118;11.734;2022-09-06T07:59:21;2.65;;;0.90;;
51332;SDS011;37417;48.118;11.734;2022-09-06T08:02:06;4.82;;;1.10;;
51332;SDS011;37417;48.118;11.734;2022-09-06T08:04:52;1.70;;;1.00;;
51332;SDS011;37417;48.118;11.734;2022-09-06T08:07:38;6.40;;;1.25;;
51332;SDS011;37417;48.118;11.734;2022-09-06T08:10:24;1.55;;;1.23;;
51332;SDS011;37417;48.118;11.734;2022-09-06T08:13:09;2.78;;;1.40;;
51332;SDS011;37417;48.118;11.734;2022-09-06T08:16:02;2.88;;;0.90;;
51332;SDS011;37417;48.118;11.734;2022-09-06T08:18:53;1.73;;;0.95;;
51332;SDS011;37417;48.118;11.734;2022-09-06T08:21:39;2.00;;;0.80;;
51332;SDS011;37417;48.118;11.734;2022-09-06T08:24:25;1.88;;;1.10;;
51332;SDS011;37417;48.118;11.734;2022-09-06T08:27:10;1.83;;;1.23;;
51332;SDS011;37417;48.118;11.734;2022-09-06T08:29:56;3.75;;;0.90;;
51332;SDS011;37417;48.118;11.734;2022-09-06T08:32:41;1.20;;;0.90;;
51332;SDS011;37417;48.118;11.734;2022-09-06T08:35:27;8.27;;;0.70;;
51332;SDS011;37417;48.118;11.734;2022-09-06T08:38:13;1.92;;;0.88;;
51332;SDS011;37417;48.118;11.734;2022-09-06T08:41:32;3.47;;;0.70;;
51332;SDS011;37417;48.118;11.734;2022-09-06T08:44:11;2.03;;;0.77;;
51332;SDS011;37417;48.118;11.734;2022-09-06T08:46:59;1.70;;;0.70;;
51332;SDS011;37417;48.118;11.734;2022-09-06T08:50:09;7.20;;;0.88;;
51332;SDS011;37417;48.118;11.734;2022-09-06T08:52:59;6.63;;;1.10;;
51332;SDS011;37417;48.118;11.734;2022-09-06T08:55:49;1.90;;;0.60;;
51332;SDS011;37417;48.118;11.734;2022-09-06T09:01:56;2.40;;;1.05;;
51332;SDS011;37417;48.118;11.734;2022-09-06T09:04:44;1.83;;;0.60;;
51332;SDS011;37417;48.118;11.734;2022-09-06T09:07:35;1.15;;;0.52;;
51332;SDS011;37417;48.118;11.734;2022-09-06T09:10:26;1.27;;;0.70;;
51332;SDS011;37417;48.118;11.734;2022-09-06T09:13:34;1.65;;;0.70;;
51332;SDS011;37417;48.118;11.734;2022-09-06T09:16:20;1.90;;;0.75;;
51332;SDS011;37417;48.118;11.734;2022-09-06T09:19:07;1.48;;;1.10;;
51332;SDS011;37417;48.118;11.734;2022-09-06T09:21:53;1.50;;;0.82;;
51332;SDS011;37417;48.118;11.734;2022-09-06T09:24:39;1.02;;;0.63;;
51332;SDS011;37417;48.118;11.734;2022-09-06T09:27:26;3.38;;;0.68;;
51332;SDS011;37417;48.118;11.734;2022-09-06T09:30:12;1.30;;;0.60;;
51332;SDS011;37417;48.118;11.734;2022-09-06T09:32:58;1.50;;;0.68;;
51332;SDS011;37417;48.118;11.734;2022-09-06T09:35:45;1.05;;;0.55;;
51332;SDS011;37417;48.118;11.734;2022-09-06T09:38:48;1.08;;;0.47;;
51332;SDS011;37417;48.118;11.734;2022-09-06T09:41:36;0.60;;;0.43;;
51332;SDS011;37417;48.118;11.734;2022-09-06T09:44:23;4.72;;;0.85;;
51332;SDS011;37417;48.118;11.734;2022-09-06T09:47:21;4.93;;;1.20;;
51332;SDS011;37417;48.118;11.734;2022-09-06T09:50:20;0.60;;;0.55;;
51332;SDS011;37417;48.118;11.734;2022-09-06T09:53:10;0.80;;;0.63;;
51332;SDS011;37417;48.118;11.734;2022-09-06T09:55:57;3.40;;;1.27;;
51332;SDS011;37417;48.118;11.734;2022-09-06T09:58:43;2.92;;;0.77;;
51332;SDS011;37417;48.118;11.734;2022-09-06T10:01:29;3.35;;;0.68;;
51332;SDS011;37417;48.118;11.734;2022-09-06T10:04:21;2.22;;;1.00;;
51332;SDS011;37417;48.118;11.734;2022-09-06T10:07:10;2.60;;;1.00;;
51332;SDS011;37417;48.118;11.734;2022-09-06T10:10:06;1.90;;;0.90;;
51332;SDS011;37417;48.118;11.734;2022-09-06T10:13:18;3.88;;;1.05;;
51332;SDS011;37417;48.118;11.734;2022-09-06T10:16:04;3.40;;;1.10;;
51332;SDS011;37417;48.118;11.734;2022-09-06T10:18:51;2.30;;;0.90;;
51332;SDS011;37417;48.118;11.734;2022-09-06T10:21:37;1.88;;;0.80;;
51332;SDS011;37417;48.118;11.734;2022-09-06T10:24:25;1.40;;;0.82;;
51332;SDS011;37417;48.118;11.734;2022-09-06T10:27:16;5.82;;;1.05;;
51332;SDS011;37417;48.118;11.734;2022-09-06T10:30:04;0.98;;;0.90;;
51332;SDS011;37417;48.118;11.734;2022-09-06T10:32:55;3.83;;;0.85;;
51332;SDS011;37417;48.118;11.734;2022-09-06T10:35:44;1.42;;;0.70;;
51332;SDS011;37417;48.118;11.734;2022-09-06T10:47:17;1.55;;;0.98;;
51332;SDS011;37417;48.118;11.734;2022-09-06T10:50:03;7.93;;;1.00;;
51332;SDS011;37417;48.118;11.734;2022-09-06T10:52:49;3.25;;;0.85;;
51332;SDS011;37417;48.118;11.734;2022-09-06T10:55:37;3.13;;;0.85;;
51332;SDS011;37417;48.118;11.734;2022-09-06T10:58:25;0.90;;;0.65;;
51332;SDS011;37417;48.118;11.734;2022-09-06T11:01:18;3.22;;;0.73;;
51332;SDS011;37417;48.118;11.734;2022-09-06T11:04:07;2.53;;;0.52;;
51332;SDS011;37417;48.118;11.734;2022-09-06T11:06:54;2.15;;;0.57;;
51332;SDS011;37417;48.118;11.734;2022-09-06T11:09:49;1.25;;;0.45;;
51332;SDS011;37417;48.118;11.734;2022-09-06T11:12:38;1.42;;;0.63;;
51332;SDS011;37417;48.118;11.734;2022-09-06T11:15:26;0.63;;;0.60;;
51332;SDS011;37417;48.118;11.734;2022-09-06T11:18:15;2.00;;;0.63;;
51332;SDS011;37417;48.118;11.734;2022-09-06T11:29:47;1.80;;;0.65;;
51332;SDS011;37417;48.118;11.734;2022-09-06T11:35:32;6.80;;;1.23;;
51332;SDS011;37417;48.118;11.734;2022-09-06T11:38:23;3.35;;;0.90;;
51332;SDS011;37417;48.118;11.734;2022-09-06T11:41:13;3.42;;;1.08;;
51332;SDS011;37417;48.118;11.734;2022-09-06T11:43:59;0.90;;;0.53;;
51332;SDS011;37417;48.118;11.734;2022-09-06T11:49:33;2.58;;;0.77;;
51332;SDS011;37417;48.118;11.734;2022-09-06T11:58:32;1.65;;;0.90;;
51332;SDS011;37417;48.118;11.734;2022-09-06T12:04:07;4.50;;;0.68;;
51332;SDS011;37417;48.118;11.734;2022-09-06T12:07:08;1.88;;;0.80;;
51332;SDS011;37417;48.118;11.734;2022-09-06T12:09:54;3.55;;;1.25;;
51332;SDS011;37417;48.118;11.734;2022-09-06T12:15:27;4.53;;;0.95;;
51332;SDS011;37417;48.118;11.734;2022-09-06T12:27:23;3.50;;;1.23;;
51332;SDS011;37417;48.118;11.734;2022-09-06T12:30:12;4.63;;;1.40;;
51332;SDS011;37417;48.118;11.734;2022-09-06T12:33:10;4.30;;;0.90;;
51332;SDS011;37417;48.118;11.734;2022-09-06T12:41:44;6.45;;;1.58;;
51332;SDS011;37417;48.118;11.734;2022-09-06T12:44:35;4.95;;;1.25;;
51332;SDS011;37417;48.118;11.734;2022-09-06T12:50:20;2.88;;;1.05;;
51332;SDS011;37417;48.118;11.734;2022-09-06T12:53:16;4.65;;;1.08;;
51332;SDS011;37417;48.118;11.734;2022-09-06T12:56:06;5.97;;;0.93;;
51332;SDS011;37417;48.118;11.734;2022-09-06T12:59:08;3.95;;;0.70;;
51332;SDS011;37417;48.118;11.734;2022-09-06T13:04:46;10.48;;;1.55;;
51332;SDS011;37417;48.118;11.734;2022-09-06T13:07:34;2.85;;;1.10;;
51332;SDS011;37417;48.118;11.734;2022-09-06T13:10:21;3.25;;;0.95;;
51332;SDS011;37417;48.118;11.734;2022-09-06T13:13:08;2.45;;;1.05;;
51332;SDS011;37417;48.118;11.734;2022-09-06T13:15:54;3.50;;;1.35;;
51332;SDS011;37417;48.118;11.734;2022-09-06T13:18:40;4.05;;;1.17;;
51332;SDS011;37417;48.118;11.734;2022-09-06T13:21:27;5.75;;;1.15;;
51332;SDS011;37417;48.118;11.734;2022-09-06T13:24:24;5.55;;;1.35;;
51332;SDS011;37417;48.118;11.734;2022-09-06T13:30:08;5.72;;;1.23;;
51332;SDS011;37417;48.118;11.734;2022-09-06T13:32:54;9.25;;;1.30;;
51332;SDS011;37417;48.118;11.734;2022-09-06T13:35:40;5.18;;;1.30;;
51332;SDS011;37417;48.118;11.734;2022-09-06T13:47:00;8.27;;;1.40;;
51332;SDS011;37417;48.118;11.734;2022-09-06T13:49:45;8.13;;;1.48;;
51332;SDS011;37417;48.118;11.734;2022-09-06T13:52:31;9.95;;;1.60;;
51332;SDS011;37417;48.118;11.734;2022-09-06T13:55:17;4.72;;;1.15;;
51332;SDS011;37417;48.118;11.734;2022-09-06T13:58:04;13.68;;;2.15;;
51332;SDS011;37417;48.118;11.734;2022-09-06T14:00:50;4.68;;;1.60;;
51332;SDS011;37417;48.118;11.734;2022-09-06T14:03:39;3.65;;;1.20;;
51332;SDS011;37417;48.118;11.734;2022-09-06T14:06:25;6.32;;;1.80;;
51332;SDS011;37417;48.118;11.734;2022-09-06T14:09:10;5.72;;;1.33;;
51332;SDS011;37417;48.118;11.734;2022-09-06T14:11:56;4.85;;;1.25;;
51332;SDS011;37417;48.118;11.734;2022-09-06T14:14:42;8.82;;;1.50;;
51332;SDS011;37417;48.118;11.734;2022-09-06T14:17:29;8.77;;;1.85;;
51332;SDS011;37417;48.118;11.734;2022-09-06T14:20:14;6.72;;;1.33;;
51332;SDS011;37417;48.118;11.734;2022-09-06T14:23:00;9.65;;;1.33;;
51332;SDS011;37417;48.118;11.734;2022-09-06T14:25:45;7.88;;;1.08;;
51332;SDS011;37417;48.118;11.734;2022-09-06T14:28:31;4.95;;;1.02;;
51332;SDS011;37417;48.118;11.734;2022-09-06T14:31:18;10.70;;;1.13;;
51332;SDS011;37417;48.118;11.734;2022-09-06T14:34:05;3.35;;;0.95;;
51332;SDS011;37417;48.118;11.734;2022-09-06T14:36:50;8.32;;;1.80;;
51332;SDS011;37417;48.118;11.734;2022-09-06T14:39:36;2.60;;;0.93;;
51332;SDS011;37417;48.118;11.734;2022-09-06T14:42:22;6.20;;;1.10;;
51332;SDS011;37417;48.118;11.734;2022-09-06T14:45:09;5.15;;;1.25;;
51332;SDS011;37417;48.118;11.734;2022-09-06T14:47:54;3.25;;;1.15;;
51332;SDS011;37417;48.118;11.734;2022-09-06T14:50:40;7.93;;;2.08;;
51332;SDS011;37417;48.118;11.734;2022-09-06T14:53:26;8.23;;;2.03;;
51332;SDS011;37417;48.118;11.734;2022-09-06T14:56:12;9.35;;;1.30;;
51332;SDS011;37417;48.118;11.734;2022-09-06T14:58:58;3.20;;;1.13;;
51332;SDS011;37417;48.118;11.734;2022-09-06T15:01:44;9.82;;;2.03;;
51332;SDS011;37417;48.118;11.734;2022-09-06T15:04:30;5.88;;;1.00;;
51332;SDS011;37417;48.118;11.734;2022-09-06T15:07:15;6.43;;;1.55;;
51332;SDS011;37417;48.118;11.734;2022-09-06T15:10:01;8.52;;;1.42;;
51332;SDS011;37417;48.118;11.734;2022-09-06T15:12:47;5.47;;;1.00;;
51332;SDS011;37417;48.118;11.734;2022-09-06T15:15:33;10.27;;;1.10;;
51332;SDS011;37417;48.118;11.734;2022-09-06T15:18:19;5.88;;;1.52;;
51332;SDS011;37417;48.118;11.734;2022-09-06T15:21:09;4.68;;;1.42;;
51332;SDS011;37417;48.118;11.734;2022-09-06T15:23:54;4.53;;;1.05;;
51332;SDS011;37417;48.118;11.734;2022-09-06T15:26:41;4.03;;;1.20;;
51332;SDS011;37417;48.118;11.734;2022-09-06T15:29:29;8.43;;;2.20;;
51332;SDS011;37417;48.118;11.734;2022-09-06T15:32:14;10.38;;;2.30;;
51332;SDS011;37417;48.118;11.734;2022-09-06T15:35:00;7.25;;;1.10;;
51332;SDS011;37417;48.118;11.734;2022-09-06T15:37:46;6.03;;;1.55;;
51332;SDS011;37417;48.118;11.734;2022-09-06T15:40:31;11.32;;;2.47;;
51332;SDS011;37417;48.118;11.734;2022-09-06T15:43:17;6.22;;;1.15;;
51332;SDS011;37417;48.118;11.734;2022-09-06T15:46:02;7.28;;;2.47;;
51332;SDS011;37417;48.118;11.734;2022-09-06T15:48:49;11.43;;;2.03;;
51332;SDS011;37417;48.118;11.734;2022-09-06T15:51:39;4.88;;;1.33;;
51332;SDS011;37417;48.118;11.734;2022-09-06T15:54:26;9.85;;;2.17;;
51332;SDS011;37417;48.118;11.734;2022-09-06T15:57:32;12.15;;;2.00;;
51332;SDS011;37417;48.118;11.734;2022-09-06T16:00:17;5.40;;;1.40;;
51332;SDS011;37417;48.118;11.734;2022-09-06T16:03:06;6.00;;;1.45;;
51332;SDS011;37417;48.118;11.734;2022-09-06T16:05:51;8.23;;;1.58;;
51332;SDS011;37417;48.118;11.734;2022-09-06T16:08:37;8.98;;;1.33;;
51332;SDS011;37417;48.118;11.734;2022-09-06T16:11:23;7.25;;;2.13;;
51332;SDS011;37417;48.118;11.734;2022-09-06T16:14:09;10.82;;;1.63;;
51332;SDS011;37417;48.118;11.734;2022-09-06T16:16:55;3.95;;;1.33;;
51332;SDS011;37417;48.118;11.734;2022-09-06T16:19:41;8.20;;;1.98;;
51332;SDS011;37417;48.118;11.734;2022-09-06T16:22:27;8.32;;;1.38;;
51332;SDS011;37417;48.118;11.734;2022-09-06T16:25:15;10.32;;;1.60;;
51332;SDS011;37417;48.118;11.734;2022-09-06T16:28:03;8.35;;;1.25;;
51332;SDS011;37417;48.118;11.734;2022-09-06T16:30:51;5.82;;;1.20;;
51332;SDS011;37417;48.118;11.734;2022-09-06T16:33:37;7.47;;;1.42;;
51332;SDS011;37417;48.118;11.734;2022-09-06T16:36:24;6.03;;;1.63;;
51332;SDS011;37417;48.118;11.734;2022-09-06T16:39:10;5.43;;;1.17;;
51332;SDS011;37417;48.118;11.734;2022-09-06T16:41:56;7.45;;;1.75;;
51332;SDS011;37417;48.118;11.734;2022-09-06T16:44:41;5.60;;;1.38;;
51332;SDS011;37417;48.118;11.734;2022-09-06T16:47:27;11.60;;;1.27;;
51332;SDS011;37417;48.118;11.734;2022-09-06T16:50:12;4.05;;;0.98;;
51332;SDS011;37417;48.118;11.734;2022-09-06T16:52:58;4.22;;;1.50;;
51332;SDS011;37417;48.118;11.734;2022-09-06T16:55:43;7.05;;;1.52;;
51332;SDS011;37417;48.118;11.734;2022-09-06T16:58:29;13.52;;;1.90;;
51332;SDS011;37417;48.118;11.734;2022-09-06T17:01:15;11.00;;;1.50;;
51332;SDS011;37417;48.118;11.734;2022-09-06T17:04:01;6.20;;;1.88;;
51332;SDS011;37417;48.118;11.734;2022-09-06T17:06:47;5.88;;;1.05;;
51332;SDS011;37417;48.118;11.734;2022-09-06T17:09:32;4.50;;;1.27;;
51332;SDS011;37417;48.118;11.734;2022-09-06T17:12:19;11.63;;;1.58;;
51332;SDS011;37417;48.118;11.734;2022-09-06T17:15:05;5.68;;;1.55;;
51332;SDS011;37417;48.118;11.734;2022-09-06T17:17:51;4.88;;;1.38;;
51332;SDS011;37417;48.118;11.734;2022-09-06T17:20:36;8.98;;;1.83;;
51332;SDS011;37417;48.118;11.734;2022-09-06T17:23:23;4.32;;;1.20;;
51332;SDS011;37417;48.118;11.734;2022-09-06T17:26:08;5.90;;;1.38;;
51332;SDS011;37417;48.118;11.734;2022-09-06T17:28:54;7.03;;;1.42;;
51332;SDS011;37417;48.118;11.734;2022-09-06T17:31:41;5.85;;;1.48;;
51332;SDS011;37417;48.118;11.734;2022-09-06T17:34:26;7.72;;;1.50;;
51332;SDS011;37417;48.118;11.734;2022-09-06T17:37:12;9.35;;;1.80;;
51332;SDS011;37417;48.118;11.734;2022-09-06T17:39:58;6.22;;;1.92;;
51332;SDS011;37417;48.118;11.734;2022-09-06T17:42:45;6.35;;;1.58;;
51332;SDS011;37417;48.118;11.734;2022-09-06T17:45:37;5.85;;;1.27;;
51332;SDS011;37417;48.118;11.734;2022-09-06T17:48:23;4.40;;;1.25;;
51332;SDS011;37417;48.118;11.734;2022-09-06T17:51:11;4.97;;;1.30;;
51332;SDS011;37417;48.118;11.734;2022-09-06T17:53:57;5.55;;;1.30;;
51332;SDS011;37417;48.118;11.734;2022-09-06T17:56:43;8.27;;;1.20;;
51332;SDS011;37417;48.118;11.734;2022-09-06T17:59:28;6.57;;;1.55;;
51332;SDS011;37417;48.118;11.734;2022-09-06T18:02:15;4.55;;;1.27;;
51332;SDS011;37417;48.118;11.734;2022-09-06T18:05:00;3.88;;;1.42;;
51332;SDS011;37417;48.118;11.734;2022-09-06T18:07:46;2.85;;;1.83;;